sensor_id;sensor_type;location;lat;lon;timestamp;P1;durP1;ratioP1;P2;durP2;ratioP2
2522;SDS011;1272;53.332;9.860;2024-02-21T00:00:53;30.07;;;12.70;;
2522;SDS011;1272;53.332;9.860;2024-02-21T00:03:18;33.80;;;13.03;;
2522;SDS011;1272;53.332;9.860;2024-02-21T00:05:45;21.93;;;11.73;;
2522;SDS011;1272;53.332;9.860;2024-02-21T00:08:10;25.03;;;13.37;;
2522;SDS011;1272;53.332;9.860;2024-02-21T00:10:36;24.20;;;12.60;;
2522;SDS011;1272;53.332;9.860;2024-02-21T00:13:02;16.37;;;11.63;;
2522;SDS011;1272;53.332;9.860;2024-02-21T00:15:28;19.30;;;12.20;;
2522;SDS011;1272;53.332;9.860;2024-02-21T00:17:54;26.40;;;12.43;;
2522;SDS011;1272;53.332;9.860;2024-02-21T00:20:20;26.20;;;14.23;;
2522;SDS011;1272;53.332;9.860;2024-02-21T00:22:45;29.00;;;14.43;;
2522;SDS011;1272;53.332;9.860;2024-02-21T00:25:12;22.43;;;13.33;;
2522;SDS011;1272;53.332;9.860;2024-02-21T00:27:38;32.13;;;13.73;;
2522;SDS011;1272;53.332;9.860;2024-02-21T00:30:06;31.33;;;13.60;;
2522;SDS011;1272;53.332;9.860;2024-02-21T00:32:32;24.30;;;14.70;;
2522;SDS011;1272;53.332;9.860;2024-02-21T00:34:59;30.00;;;12.00;;
2522;SDS011;1272;53.332;9.860;2024-02-21T00:37:26;22.10;;;14.30;;
2522;SDS011;1272;53.332;9.860;2024-02-21T00:39:52;21.00;;;13.20;;
2522;SDS011;1272;53.332;9.860;2024-02-21T00:42:21;27.13;;;12.77;;
2522;SDS011;1272;53.332;9.860;2024-02-21T00:44:47;20.30;;;12.77;;
2522;SDS011;1272;53.332;9.860;2024-02-21T00:47:12;21.10;;;12.50;;
2522;SDS011;1272;53.332;9.860;2024-02-21T00:49:38;22.53;;;12.40;;
2522;SDS011;1272;53.332;9.860;2024-02-21T00:52:04;25.67;;;14.07;;
2522;SDS011;1272;53.332;9.860;2024-02-21T00:54:29;27.57;;;12.40;;
2522;SDS011;1272;53.332;9.860;2024-02-21T00:56:55;27.13;;;14.57;;
2522;SDS011;1272;53.332;9.860;2024-02-21T00:59:21;23.47;;;14.60;;
2522;SDS011;1272;53.332;9.860;2024-02-21T01:01:46;25.47;;;13.10;;
2522;SDS011;1272;53.332;9.860;2024-02-21T01:04:12;25.97;;;14.33;;
2522;SDS011;1272;53.332;9.860;2024-02-21T01:06:38;22.50;;;13.50;;
2522;SDS011;1272;53.332;9.860;2024-02-21T01:09:04;24.43;;;14.20;;
2522;SDS011;1272;53.332;9.860;2024-02-21T01:11:30;33.37;;;14.03;;
2522;SDS011;1272;53.332;9.860;2024-02-21T01:13:56;30.83;;;14.50;;
2522;SDS011;1272;53.332;9.860;2024-02-21T01:16:22;24.53;;;14.20;;
2522;SDS011;1272;53.332;9.860;2024-02-21T01:18:48;20.00;;;13.00;;
2522;SDS011;1272;53.332;9.860;2024-02-21T01:21:14;28.10;;;13.33;;
2522;SDS011;1272;53.332;9.860;2024-02-21T01:23:39;25.00;;;13.93;;
2522;SDS011;1272;53.332;9.860;2024-02-21T01:26:05;31.53;;;14.37;;
2522;SDS011;1272;53.332;9.860;2024-02-21T01:28:33;19.70;;;12.63;;
2522;SDS011;1272;53.332;9.860;2024-02-21T01:30:59;27.80;;;14.20;;
2522;SDS011;1272;53.332;9.860;2024-02-21T01:33:25;26.63;;;15.30;;
2522;SDS011;1272;53.332;9.860;2024-02-21T01:35:50;29.90;;;14.30;;
2522;SDS011;1272;53.332;9.860;2024-02-21T01:38:16;22.60;;;14.80;;
2522;SDS011;1272;53.332;9.860;2024-02-21T01:40:42;28.87;;;13.37;;
2522;SDS011;1272;53.332;9.860;2024-02-21T01:43:17;28.37;;;14.77;;
2522;SDS011;1272;53.332;9.860;2024-02-21T01:45:49;26.80;;;14.50;;
2522;SDS011;1272;53.332;9.860;2024-02-21T01:48:19;28.07;;;13.57;;
2522;SDS011;1272;53.332;9.860;2024-02-21T01:50:45;22.20;;;13.50;;
2522;SDS011;1272;53.332;9.860;2024-02-21T01:53:12;27.17;;;15.70;;
2522;SDS011;1272;53.332;9.860;2024-02-21T01:55:44;24.57;;;14.23;;
2522;SDS011;1272;53.332;9.860;2024-02-21T01:58:13;27.37;;;16.57;;
2522;SDS011;1272;53.332;9.860;2024-02-21T02:00:43;24.33;;;13.83;;
2522;SDS011;1272;53.332;9.860;2024-02-21T02:03:10;30.93;;;16.70;;
2522;SDS011;1272;53.332;9.860;2024-02-21T02:05:45;26.93;;;15.43;;
2522;SDS011;1272;53.332;9.860;2024-02-21T02:08:15;26.87;;;16.17;;
2522;SDS011;1272;53.332;9.860;2024-02-21T02:10:41;28.30;;;17.33;;
2522;SDS011;1272;53.332;9.860;2024-02-21T02:13:07;31.80;;;16.70;;
2522;SDS011;1272;53.332;9.860;2024-02-21T02:15:43;28.53;;;16.03;;
2522;SDS011;1272;53.332;9.860;2024-02-21T02:18:10;32.73;;;15.53;;
2522;SDS011;1272;53.332;9.860;2024-02-21T02:20:37;32.40;;;16.63;;
2522;SDS011;1272;53.332;9.860;2024-02-21T02:25:48;31.47;;;17.33;;
2522;SDS011;1272;53.332;9.860;2024-02-21T02:28:16;36.03;;;18.30;;
2522;SDS011;1272;53.332;9.860;2024-02-21T02:30:41;30.27;;;16.10;;
2522;SDS011;1272;53.332;9.860;2024-02-21T02:33:07;31.30;;;17.67;;
2522;SDS011;1272;53.332;9.860;2024-02-21T02:35:33;33.70;;;16.47;;
2522;SDS011;1272;53.332;9.860;2024-02-21T02:38:01;30.93;;;16.80;;
2522;SDS011;1272;53.332;9.860;2024-02-21T02:40:30;31.83;;;18.07;;
2522;SDS011;1272;53.332;9.860;2024-02-21T02:42:56;37.30;;;17.30;;
2522;SDS011;1272;53.332;9.860;2024-02-21T02:45:22;34.07;;;17.67;;
2522;SDS011;1272;53.332;9.860;2024-02-21T02:47:51;28.40;;;16.23;;
2522;SDS011;1272;53.332;9.860;2024-02-21T02:50:20;35.57;;;16.97;;
2522;SDS011;1272;53.332;9.860;2024-02-21T02:52:46;33.53;;;17.90;;
2522;SDS011;1272;53.332;9.860;2024-02-21T02:55:11;26.33;;;15.33;;
2522;SDS011;1272;53.332;9.860;2024-02-21T02:57:37;33.50;;;17.10;;
2522;SDS011;1272;53.332;9.860;2024-02-21T03:00:03;28.90;;;16.00;;
2522;SDS011;1272;53.332;9.860;2024-02-21T03:02:31;30.77;;;16.80;;
2522;SDS011;1272;53.332;9.860;2024-02-21T03:04:57;33.90;;;15.60;;
2522;SDS011;1272;53.332;9.860;2024-02-21T03:07:24;26.10;;;14.83;;
2522;SDS011;1272;53.332;9.860;2024-02-21T03:09:50;25.93;;;15.03;;
2522;SDS011;1272;53.332;9.860;2024-02-21T03:12:15;32.63;;;13.87;;
2522;SDS011;1272;53.332;9.860;2024-02-21T03:14:49;24.63;;;13.83;;
2522;SDS011;1272;53.332;9.860;2024-02-21T03:17:15;28.13;;;14.53;;
2522;SDS011;1272;53.332;9.860;2024-02-21T03:19:41;27.83;;;15.97;;
2522;SDS011;1272;53.332;9.860;2024-02-21T03:22:07;32.17;;;15.60;;
2522;SDS011;1272;53.332;9.860;2024-02-21T03:24:32;30.33;;;14.20;;
2522;SDS011;1272;53.332;9.860;2024-02-21T03:26:58;30.67;;;15.20;;
2522;SDS011;1272;53.332;9.860;2024-02-21T03:29:24;30.30;;;14.63;;
2522;SDS011;1272;53.332;9.860;2024-02-21T03:31:50;27.50;;;13.83;;
2522;SDS011;1272;53.332;9.860;2024-02-21T03:34:16;25.97;;;13.30;;
2522;SDS011;1272;53.332;9.860;2024-02-21T03:36:41;34.33;;;16.13;;
2522;SDS011;1272;53.332;9.860;2024-02-21T03:39:07;25.57;;;14.83;;
2522;SDS011;1272;53.332;9.860;2024-02-21T03:41:34;25.03;;;14.13;;
2522;SDS011;1272;53.332;9.860;2024-02-21T03:44:00;24.83;;;14.07;;
2522;SDS011;1272;53.332;9.860;2024-02-21T03:46:26;24.90;;;14.50;;
2522;SDS011;1272;53.332;9.860;2024-02-21T03:48:52;29.37;;;15.90;;
2522;SDS011;1272;53.332;9.860;2024-02-21T03:51:18;23.20;;;13.30;;
2522;SDS011;1272;53.332;9.860;2024-02-21T03:53:44;25.37;;;15.53;;
2522;SDS011;1272;53.332;9.860;2024-02-21T03:56:10;23.10;;;13.67;;
2522;SDS011;1272;53.332;9.860;2024-02-21T03:58:35;26.80;;;14.90;;
2522;SDS011;1272;53.332;9.860;2024-02-21T04:01:01;22.97;;;13.57;;
2522;SDS011;1272;53.332;9.860;2024-02-21T04:03:27;35.50;;;16.60;;
2522;SDS011;1272;53.332;9.860;2024-02-21T04:05:53;28.93;;;15.17;;
2522;SDS011;1272;53.332;9.860;2024-02-21T04:08:19;23.43;;;12.67;;
2522;SDS011;1272;53.332;9.860;2024-02-21T04:10:45;23.60;;;12.80;;
2522;SDS011;1272;53.332;9.860;2024-02-21T04:13:12;22.47;;;13.80;;
2522;SDS011;1272;53.332;9.860;2024-02-21T04:15:37;28.10;;;13.93;;
2522;SDS011;1272;53.332;9.860;2024-02-21T04:18:03;23.03;;;14.27;;
2522;SDS011;1272;53.332;9.860;2024-02-21T04:20:29;26.00;;;13.40;;
2522;SDS011;1272;53.332;9.860;2024-02-21T04:22:55;26.90;;;13.27;;
2522;SDS011;1272;53.332;9.860;2024-02-21T04:25:21;31.57;;;15.00;;
2522;SDS011;1272;53.332;9.860;2024-02-21T04:27:47;30.83;;;15.53;;
2522;SDS011;1272;53.332;9.860;2024-02-21T04:30:13;24.10;;;13.83;;
2522;SDS011;1272;53.332;9.860;2024-02-21T04:32:39;27.30;;;14.77;;
2522;SDS011;1272;53.332;9.860;2024-02-21T04:35:05;30.30;;;15.67;;
2522;SDS011;1272;53.332;9.860;2024-02-21T04:37:32;24.53;;;15.07;;
2522;SDS011;1272;53.332;9.860;2024-02-21T04:39:57;25.63;;;13.83;;
2522;SDS011;1272;53.332;9.860;2024-02-21T04:42:23;23.77;;;14.23;;
2522;SDS011;1272;53.332;9.860;2024-02-21T04:44:49;26.40;;;14.47;;
2522;SDS011;1272;53.332;9.860;2024-02-21T04:47:14;31.87;;;16.40;;
2522;SDS011;1272;53.332;9.860;2024-02-21T04:49:40;28.27;;;13.90;;
2522;SDS011;1272;53.332;9.860;2024-02-21T04:52:06;27.33;;;14.50;;
2522;SDS011;1272;53.332;9.860;2024-02-21T04:54:32;21.00;;;13.90;;
2522;SDS011;1272;53.332;9.860;2024-02-21T04:56:57;23.70;;;13.70;;
2522;SDS011;1272;53.332;9.860;2024-02-21T04:59:23;31.73;;;14.80;;
2522;SDS011;1272;53.332;9.860;2024-02-21T05:01:48;27.07;;;15.03;;
2522;SDS011;1272;53.332;9.860;2024-02-21T05:04:14;25.97;;;15.10;;
2522;SDS011;1272;53.332;9.860;2024-02-21T05:06:41;25.30;;;13.30;;
2522;SDS011;1272;53.332;9.860;2024-02-21T05:09:07;23.63;;;12.30;;
2522;SDS011;1272;53.332;9.860;2024-02-21T05:11:34;30.53;;;14.13;;
2522;SDS011;1272;53.332;9.860;2024-02-21T05:14:00;24.37;;;14.37;;
2522;SDS011;1272;53.332;9.860;2024-02-21T05:16:26;28.10;;;13.93;;
2522;SDS011;1272;53.332;9.860;2024-02-21T05:18:51;19.60;;;12.53;;
2522;SDS011;1272;53.332;9.860;2024-02-21T05:21:17;25.70;;;12.93;;
2522;SDS011;1272;53.332;9.860;2024-02-21T05:23:44;23.23;;;14.87;;
2522;SDS011;1272;53.332;9.860;2024-02-21T05:26:10;28.00;;;14.03;;
2522;SDS011;1272;53.332;9.860;2024-02-21T05:28:35;23.40;;;12.70;;
2522;SDS011;1272;53.332;9.860;2024-02-21T05:31:01;21.30;;;11.47;;
2522;SDS011;1272;53.332;9.860;2024-02-21T05:33:27;19.70;;;11.43;;
2522;SDS011;1272;53.332;9.860;2024-02-21T05:35:53;18.10;;;11.70;;
2522;SDS011;1272;53.332;9.860;2024-02-21T05:38:18;22.70;;;11.60;;
2522;SDS011;1272;53.332;9.860;2024-02-21T05:40:44;23.93;;;12.50;;
2522;SDS011;1272;53.332;9.860;2024-02-21T05:43:10;18.20;;;12.00;;
2522;SDS011;1272;53.332;9.860;2024-02-21T05:45:36;21.50;;;12.63;;
2522;SDS011;1272;53.332;9.860;2024-02-21T05:48:02;19.23;;;10.27;;
2522;SDS011;1272;53.332;9.860;2024-02-21T05:50:28;15.33;;;10.53;;
2522;SDS011;1272;53.332;9.860;2024-02-21T05:52:54;20.70;;;10.70;;
2522;SDS011;1272;53.332;9.860;2024-02-21T05:55:21;17.93;;;10.90;;
2522;SDS011;1272;53.332;9.860;2024-02-21T05:57:47;19.60;;;10.93;;
2522;SDS011;1272;53.332;9.860;2024-02-21T06:00:14;18.93;;;11.50;;
2522;SDS011;1272;53.332;9.860;2024-02-21T06:02:40;17.03;;;9.83;;
2522;SDS011;1272;53.332;9.860;2024-02-21T06:05:06;15.63;;;9.57;;
2522;SDS011;1272;53.332;9.860;2024-02-21T06:07:33;15.60;;;9.40;;
2522;SDS011;1272;53.332;9.860;2024-02-21T06:10:02;16.13;;;10.20;;
2522;SDS011;1272;53.332;9.860;2024-02-21T06:12:28;22.33;;;11.70;;
2522;SDS011;1272;53.332;9.860;2024-02-21T06:14:54;12.50;;;9.10;;
2522;SDS011;1272;53.332;9.860;2024-02-21T06:17:19;15.90;;;9.27;;
2522;SDS011;1272;53.332;9.860;2024-02-21T06:19:45;16.13;;;11.30;;
2522;SDS011;1272;53.332;9.860;2024-02-21T06:22:11;15.50;;;8.83;;
2522;SDS011;1272;53.332;9.860;2024-02-21T06:24:37;13.53;;;8.57;;
2522;SDS011;1272;53.332;9.860;2024-02-21T06:27:03;18.60;;;9.50;;
2522;SDS011;1272;53.332;9.860;2024-02-21T06:29:33;12.23;;;7.97;;
2522;SDS011;1272;53.332;9.860;2024-02-21T06:31:58;12.23;;;8.90;;
2522;SDS011;1272;53.332;9.860;2024-02-21T06:34:24;13.63;;;8.70;;
2522;SDS011;1272;53.332;9.860;2024-02-21T06:36:50;17.90;;;8.77;;
2522;SDS011;1272;53.332;9.860;2024-02-21T06:39:16;14.60;;;8.37;;
2522;SDS011;1272;53.332;9.860;2024-02-21T06:41:41;11.73;;;7.33;;
2522;SDS011;1272;53.332;9.860;2024-02-21T06:44:07;16.43;;;8.30;;
2522;SDS011;1272;53.332;9.860;2024-02-21T06:46:33;16.73;;;9.07;;
2522;SDS011;1272;53.332;9.860;2024-02-21T06:48:59;13.83;;;8.10;;
2522;SDS011;1272;53.332;9.860;2024-02-21T06:51:26;15.23;;;8.47;;
2522;SDS011;1272;53.332;9.860;2024-02-21T06:53:52;11.03;;;8.23;;
2522;SDS011;1272;53.332;9.860;2024-02-21T06:56:19;12.87;;;7.33;;
2522;SDS011;1272;53.332;9.860;2024-02-21T06:58:45;13.10;;;7.83;;
2522;SDS011;1272;53.332;9.860;2024-02-21T07:01:10;13.43;;;8.07;;
2522;SDS011;1272;53.332;9.860;2024-02-21T07:03:36;7.43;;;6.67;;
2522;SDS011;1272;53.332;9.860;2024-02-21T07:06:02;12.90;;;7.80;;
2522;SDS011;1272;53.332;9.860;2024-02-21T07:08:28;12.50;;;7.70;;
2522;SDS011;1272;53.332;9.860;2024-02-21T07:10:54;8.03;;;6.20;;
2522;SDS011;1272;53.332;9.860;2024-02-21T07:13:20;10.73;;;7.63;;
2522;SDS011;1272;53.332;9.860;2024-02-21T07:15:47;9.70;;;6.50;;
2522;SDS011;1272;53.332;9.860;2024-02-21T07:18:13;12.90;;;6.73;;
2522;SDS011;1272;53.332;9.860;2024-02-21T07:20:39;9.80;;;6.50;;
2522;SDS011;1272;53.332;9.860;2024-02-21T07:23:06;7.53;;;5.70;;
2522;SDS011;1272;53.332;9.860;2024-02-21T07:25:35;9.00;;;5.80;;
2522;SDS011;1272;53.332;9.860;2024-02-21T07:28:00;11.27;;;6.67;;
2522;SDS011;1272;53.332;9.860;2024-02-21T07:30:26;8.50;;;5.33;;
2522;SDS011;1272;53.332;9.860;2024-02-21T07:32:52;7.13;;;5.20;;
2522;SDS011;1272;53.332;9.860;2024-02-21T07:35:18;6.60;;;5.60;;
2522;SDS011;1272;53.332;9.860;2024-02-21T07:37:43;7.57;;;5.50;;
2522;SDS011;1272;53.332;9.860;2024-02-21T07:40:13;7.87;;;5.57;;
2522;SDS011;1272;53.332;9.860;2024-02-21T07:42:39;9.30;;;5.80;;
2522;SDS011;1272;53.332;9.860;2024-02-21T07:45:06;6.53;;;4.80;;
2522;SDS011;1272;53.332;9.860;2024-02-21T07:47:33;9.20;;;5.60;;
2522;SDS011;1272;53.332;9.860;2024-02-21T07:49:59;10.97;;;5.50;;
2522;SDS011;1272;53.332;9.860;2024-02-21T07:52:25;6.80;;;5.23;;
2522;SDS011;1272;53.332;9.860;2024-02-21T07:54:50;7.80;;;5.83;;
2522;SDS011;1272;53.332;9.860;2024-02-21T07:57:16;8.00;;;6.30;;
2522;SDS011;1272;53.332;9.860;2024-02-21T07:59:42;8.63;;;5.73;;
2522;SDS011;1272;53.332;9.860;2024-02-21T08:02:08;11.17;;;7.10;;
2522;SDS011;1272;53.332;9.860;2024-02-21T08:04:33;10.43;;;5.93;;
2522;SDS011;1272;53.332;9.860;2024-02-21T08:06:59;8.60;;;5.53;;
2522;SDS011;1272;53.332;9.860;2024-02-21T08:09:29;6.13;;;5.27;;
2522;SDS011;1272;53.332;9.860;2024-02-21T08:11:55;9.40;;;6.60;;
2522;SDS011;1272;53.332;9.860;2024-02-21T08:14:21;7.70;;;5.90;;
2522;SDS011;1272;53.332;9.860;2024-02-21T08:16:47;6.93;;;5.77;;
2522;SDS011;1272;53.332;9.860;2024-02-21T08:19:13;9.00;;;6.73;;
2522;SDS011;1272;53.332;9.860;2024-02-21T08:21:39;9.53;;;5.80;;
2522;SDS011;1272;53.332;9.860;2024-02-21T08:24:04;8.60;;;5.80;;
2522;SDS011;1272;53.332;9.860;2024-02-21T08:26:30;8.73;;;5.27;;
2522;SDS011;1272;53.332;9.860;2024-02-21T08:28:56;8.90;;;6.20;;
2522;SDS011;1272;53.332;9.860;2024-02-21T08:31:26;8.13;;;5.50;;
2522;SDS011;1272;53.332;9.860;2024-02-21T08:33:59;8.23;;;5.53;;
2522;SDS011;1272;53.332;9.860;2024-02-21T08:36:32;9.03;;;6.00;;
2522;SDS011;1272;53.332;9.860;2024-02-21T08:39:00;9.07;;;5.80;;
2522;SDS011;1272;53.332;9.860;2024-02-21T08:41:33;7.57;;;5.53;;
2522;SDS011;1272;53.332;9.860;2024-02-21T08:43:59;7.80;;;6.80;;
2522;SDS011;1272;53.332;9.860;2024-02-21T08:46:25;8.50;;;6.23;;
2522;SDS011;1272;53.332;9.860;2024-02-21T08:48:51;11.37;;;6.63;;
2522;SDS011;1272;53.332;9.860;2024-02-21T08:51:18;11.73;;;7.57;;
2522;SDS011;1272;53.332;9.860;2024-02-21T08:53:44;10.50;;;6.83;;
2522;SDS011;1272;53.332;9.860;2024-02-21T08:56:10;8.97;;;6.97;;
2522;SDS011;1272;53.332;9.860;2024-02-21T08:58:36;10.10;;;7.03;;
2522;SDS011;1272;53.332;9.860;2024-02-21T09:01:03;12.90;;;8.00;;
2522;SDS011;1272;53.332;9.860;2024-02-21T09:03:32;16.20;;;8.57;;
2522;SDS011;1272;53.332;9.860;2024-02-21T09:05:59;11.67;;;7.73;;
2522;SDS011;1272;53.332;9.860;2024-02-21T09:08:25;11.13;;;8.97;;
2522;SDS011;1272;53.332;9.860;2024-02-21T09:10:51;12.07;;;6.73;;
2522;SDS011;1272;53.332;9.860;2024-02-21T09:13:17;18.50;;;9.03;;
2522;SDS011;1272;53.332;9.860;2024-02-21T09:15:43;10.23;;;7.20;;
2522;SDS011;1272;53.332;9.860;2024-02-21T09:18:08;13.73;;;8.60;;
2522;SDS011;1272;53.332;9.860;2024-02-21T09:20:34;15.80;;;9.00;;
2522;SDS011;1272;53.332;9.860;2024-02-21T09:23:00;16.43;;;9.43;;
2522;SDS011;1272;53.332;9.860;2024-02-21T09:25:26;18.93;;;9.70;;
2522;SDS011;1272;53.332;9.860;2024-02-21T09:27:53;19.17;;;9.97;;
2522;SDS011;1272;53.332;9.860;2024-02-21T09:30:19;21.23;;;10.63;;
2522;SDS011;1272;53.332;9.860;2024-02-21T09:32:45;20.97;;;10.53;;
2522;SDS011;1272;53.332;9.860;2024-02-21T09:35:10;17.50;;;11.30;;
2522;SDS011;1272;53.332;9.860;2024-02-21T09:37:37;19.40;;;11.97;;
2522;SDS011;1272;53.332;9.860;2024-02-21T09:40:04;18.27;;;10.30;;
2522;SDS011;1272;53.332;9.860;2024-02-21T09:42:40;22.53;;;11.23;;
2522;SDS011;1272;53.332;9.860;2024-02-21T09:45:19;21.93;;;12.10;;
2522;SDS011;1272;53.332;9.860;2024-02-21T09:50:20;19.90;;;11.70;;
2522;SDS011;1272;53.332;9.860;2024-02-21T09:52:48;22.70;;;14.13;;
2522;SDS011;1272;53.332;9.860;2024-02-21T09:55:15;25.37;;;12.90;;
2522;SDS011;1272;53.332;9.860;2024-02-21T09:57:41;24.27;;;13.33;;
2522;SDS011;1272;53.332;9.860;2024-02-21T10:00:09;22.23;;;11.70;;
2522;SDS011;1272;53.332;9.860;2024-02-21T10:02:35;25.23;;;13.70;;
2522;SDS011;1272;53.332;9.860;2024-02-21T10:05:01;22.83;;;13.10;;
2522;SDS011;1272;53.332;9.860;2024-02-21T10:07:29;23.60;;;12.67;;
2522;SDS011;1272;53.332;9.860;2024-02-21T10:10:02;30.30;;;15.27;;
2522;SDS011;1272;53.332;9.860;2024-02-21T10:12:28;30.70;;;14.93;;
2522;SDS011;1272;53.332;9.860;2024-02-21T10:15:00;30.77;;;15.10;;
2522;SDS011;1272;53.332;9.860;2024-02-21T10:17:29;21.00;;;11.93;;
2522;SDS011;1272;53.332;9.860;2024-02-21T10:20:10;29.80;;;13.97;;
2522;SDS011;1272;53.332;9.860;2024-02-21T10:22:37;33.50;;;15.20;;
2522;SDS011;1272;53.332;9.860;2024-02-21T10:25:10;19.83;;;11.73;;
2522;SDS011;1272;53.332;9.860;2024-02-21T10:27:41;20.67;;;12.53;;
2522;SDS011;1272;53.332;9.860;2024-02-21T10:30:07;23.63;;;11.73;;
2522;SDS011;1272;53.332;9.860;2024-02-21T10:32:48;25.90;;;11.20;;
2522;SDS011;1272;53.332;9.860;2024-02-21T10:35:30;20.27;;;11.47;;
2522;SDS011;1272;53.332;9.860;2024-02-21T10:37:58;15.43;;;9.90;;
2522;SDS011;1272;53.332;9.860;2024-02-21T10:40:25;18.27;;;11.17;;
2522;SDS011;1272;53.332;9.860;2024-02-21T10:42:57;18.20;;;11.17;;
2522;SDS011;1272;53.332;9.860;2024-02-21T10:45:31;23.60;;;10.60;;
2522;SDS011;1272;53.332;9.860;2024-02-21T10:48:03;15.40;;;10.60;;
2522;SDS011;1272;53.332;9.860;2024-02-21T10:50:31;15.30;;;9.47;;
2522;SDS011;1272;53.332;9.860;2024-02-21T10:53:22;16.07;;;12.03;;
2522;SDS011;1272;53.332;9.860;2024-02-21T10:56:01;20.27;;;12.13;;
2522;SDS011;1272;53.332;9.860;2024-02-21T10:58:36;15.33;;;8.60;;
2522;SDS011;1272;53.332;9.860;2024-02-21T11:01:03;15.77;;;9.93;;
2522;SDS011;1272;53.332;9.860;2024-02-21T11:03:30;15.97;;;10.07;;
2522;SDS011;1272;53.332;9.860;2024-02-21T11:05:56;15.60;;;9.80;;
2522;SDS011;1272;53.332;9.860;2024-02-21T11:08:23;14.10;;;10.40;;
2522;SDS011;1272;53.332;9.860;2024-02-21T11:10:56;17.93;;;9.20;;
2522;SDS011;1272;53.332;9.860;2024-02-21T11:13:29;24.67;;;11.60;;
2522;SDS011;1272;53.332;9.860;2024-02-21T11:16:09;15.30;;;9.20;;
2522;SDS011;1272;53.332;9.860;2024-02-21T11:18:38;18.93;;;8.30;;
2522;SDS011;1272;53.332;9.860;2024-02-21T11:21:04;14.50;;;8.00;;
2522;SDS011;1272;53.332;9.860;2024-02-21T11:23:31;14.27;;;10.30;;
2522;SDS011;1272;53.332;9.860;2024-02-21T11:26:09;13.70;;;9.50;;
2522;SDS011;1272;53.332;9.860;2024-02-21T11:28:36;16.80;;;11.03;;
2522;SDS011;1272;53.332;9.860;2024-02-21T11:31:10;17.73;;;9.00;;
2522;SDS011;1272;53.332;9.860;2024-02-21T11:33:40;10.17;;;7.63;;
2522;SDS011;1272;53.332;9.860;2024-02-21T11:36:10;18.17;;;8.80;;
2522;SDS011;1272;53.332;9.860;2024-02-21T11:38:36;15.73;;;9.50;;
2522;SDS011;1272;53.332;9.860;2024-02-21T11:41:01;13.23;;;8.17;;
2522;SDS011;1272;53.332;9.860;2024-02-21T11:43:27;15.10;;;9.87;;
2522;SDS011;1272;53.332;9.860;2024-02-21T11:46:00;19.30;;;9.90;;
2522;SDS011;1272;53.332;9.860;2024-02-21T11:48:26;16.30;;;10.07;;
2522;SDS011;1272;53.332;9.860;2024-02-21T11:50:55;12.53;;;9.30;;
2522;SDS011;1272;53.332;9.860;2024-02-21T11:53:22;18.80;;;10.00;;
2522;SDS011;1272;53.332;9.860;2024-02-21T11:55:48;14.37;;;9.60;;
2522;SDS011;1272;53.332;9.860;2024-02-21T11:58:15;20.17;;;10.10;;
2522;SDS011;1272;53.332;9.860;2024-02-21T12:00:41;13.63;;;9.40;;
2522;SDS011;1272;53.332;9.860;2024-02-21T12:03:07;12.40;;;9.07;;
2522;SDS011;1272;53.332;9.860;2024-02-21T12:05:33;10.73;;;9.10;;
2522;SDS011;1272;53.332;9.860;2024-02-21T12:08:00;15.10;;;9.40;;
2522;SDS011;1272;53.332;9.860;2024-02-21T12:10:26;15.53;;;10.27;;
2522;SDS011;1272;53.332;9.860;2024-02-21T12:13:04;18.47;;;10.87;;
2522;SDS011;1272;53.332;9.860;2024-02-21T12:15:32;18.87;;;11.80;;
2522;SDS011;1272;53.332;9.860;2024-02-21T12:17:57;15.63;;;9.70;;
2522;SDS011;1272;53.332;9.860;2024-02-21T12:20:26;17.30;;;13.77;;
2522;SDS011;1272;53.332;9.860;2024-02-21T12:22:52;17.23;;;10.00;;
2522;SDS011;1272;53.332;9.860;2024-02-21T12:25:19;23.23;;;10.90;;
2522;SDS011;1272;53.332;9.860;2024-02-21T12:27:51;14.53;;;8.47;;
2522;SDS011;1272;53.332;9.860;2024-02-21T12:30:17;16.77;;;10.67;;
2522;SDS011;1272;53.332;9.860;2024-02-21T12:32:44;17.50;;;10.00;;
2522;SDS011;1272;53.332;9.860;2024-02-21T12:35:10;16.33;;;10.60;;
2522;SDS011;1272;53.332;9.860;2024-02-21T12:37:36;15.53;;;11.07;;
2522;SDS011;1272;53.332;9.860;2024-02-21T12:40:03;14.93;;;9.70;;
2522;SDS011;1272;53.332;9.860;2024-02-21T12:42:31;16.23;;;9.57;;
2522;SDS011;1272;53.332;9.860;2024-02-21T12:44:58;17.40;;;10.13;;
2522;SDS011;1272;53.332;9.860;2024-02-21T12:47:24;14.17;;;9.60;;
2522;SDS011;1272;53.332;9.860;2024-02-21T12:49:51;15.67;;;10.53;;
2522;SDS011;1272;53.332;9.860;2024-02-21T12:52:17;11.90;;;8.63;;
2522;SDS011;1272;53.332;9.860;2024-02-21T12:54:43;20.90;;;9.87;;
2522;SDS011;1272;53.332;9.860;2024-02-21T12:57:09;13.27;;;9.20;;
2522;SDS011;1272;53.332;9.860;2024-02-21T12:59:35;14.80;;;9.40;;
2522;SDS011;1272;53.332;9.860;2024-02-21T13:02:01;16.40;;;10.33;;
2522;SDS011;1272;53.332;9.860;2024-02-21T13:04:27;13.00;;;9.27;;
2522;SDS011;1272;53.332;9.860;2024-02-21T13:06:53;11.53;;;9.53;;
2522;SDS011;1272;53.332;9.860;2024-02-21T13:09:20;16.43;;;9.60;;
2522;SDS011;1272;53.332;9.860;2024-02-21T13:11:46;16.20;;;10.10;;
2522;SDS011;1272;53.332;9.860;2024-02-21T13:14:12;11.13;;;8.27;;
2522;SDS011;1272;53.332;9.860;2024-02-21T13:16:38;12.97;;;8.70;;
2522;SDS011;1272;53.332;9.860;2024-02-21T13:19:06;12.30;;;9.40;;
2522;SDS011;1272;53.332;9.860;2024-02-21T13:21:33;13.07;;;9.57;;
2522;SDS011;1272;53.332;9.860;2024-02-21T13:23:59;10.80;;;7.97;;
2522;SDS011;1272;53.332;9.860;2024-02-21T13:26:25;10.20;;;8.20;;
2522;SDS011;1272;53.332;9.860;2024-02-21T13:28:51;9.57;;;7.03;;
2522;SDS011;1272;53.332;9.860;2024-02-21T13:31:19;8.67;;;7.87;;
2522;SDS011;1272;53.332;9.860;2024-02-21T13:33:45;12.47;;;9.37;;
2522;SDS011;1272;53.332;9.860;2024-02-21T13:36:11;11.73;;;8.10;;
2522;SDS011;1272;53.332;9.860;2024-02-21T13:38:38;7.60;;;6.83;;
2522;SDS011;1272;53.332;9.860;2024-02-21T13:41:06;9.57;;;6.73;;
2522;SDS011;1272;53.332;9.860;2024-02-21T13:43:32;8.90;;;8.00;;
2522;SDS011;1272;53.332;9.860;2024-02-21T13:45:59;9.17;;;8.27;;
2522;SDS011;1272;53.332;9.860;2024-02-21T13:48:30;10.40;;;8.30;;
2522;SDS011;1272;53.332;9.860;2024-02-21T13:50:56;10.60;;;7.67;;
2522;SDS011;1272;53.332;9.860;2024-02-21T13:53:22;14.50;;;8.73;;
2522;SDS011;1272;53.332;9.860;2024-02-21T13:55:48;7.93;;;7.13;;
2522;SDS011;1272;53.332;9.860;2024-02-21T13:58:15;11.67;;;8.50;;
2522;SDS011;1272;53.332;9.860;2024-02-21T14:00:41;9.13;;;8.23;;
2522;SDS011;1272;53.332;9.860;2024-02-21T14:03:06;8.77;;;6.97;;
2522;SDS011;1272;53.332;9.860;2024-02-21T14:05:32;9.27;;;7.63;;
2522;SDS011;1272;53.332;9.860;2024-02-21T14:07:58;10.67;;;8.77;;
2522;SDS011;1272;53.332;9.860;2024-02-21T14:10:23;7.60;;;6.90;;
2522;SDS011;1272;53.332;9.860;2024-02-21T14:12:49;10.33;;;7.40;;
2522;SDS011;1272;53.332;9.860;2024-02-21T14:15:15;10.27;;;6.40;;
2522;SDS011;1272;53.332;9.860;2024-02-21T14:17:43;6.90;;;5.57;;
2522;SDS011;1272;53.332;9.860;2024-02-21T14:20:09;8.20;;;6.07;;
2522;SDS011;1272;53.332;9.860;2024-02-21T14:22:35;7.30;;;6.63;;
2522;SDS011;1272;53.332;9.860;2024-02-21T14:25:04;4.13;;;3.93;;
2522;SDS011;1272;53.332;9.860;2024-02-21T14:27:33;7.83;;;5.37;;
2522;SDS011;1272;53.332;9.860;2024-02-21T14:30:00;5.30;;;4.90;;
2522;SDS011;1272;53.332;9.860;2024-02-21T14:32:27;6.97;;;5.33;;
2522;SDS011;1272;53.332;9.860;2024-02-21T14:34:53;4.60;;;4.30;;
2522;SDS011;1272;53.332;9.860;2024-02-21T14:37:18;4.90;;;4.50;;
2522;SDS011;1272;53.332;9.860;2024-02-21T14:39:44;5.70;;;5.17;;
2522;SDS011;1272;53.332;9.860;2024-02-21T14:42:10;6.63;;;6.13;;
2522;SDS011;1272;53.332;9.860;2024-02-21T14:44:36;5.63;;;4.97;;
2522;SDS011;1272;53.332;9.860;2024-02-21T14:47:02;4.10;;;3.80;;
2522;SDS011;1272;53.332;9.860;2024-02-21T14:49:28;4.40;;;4.00;;
2522;SDS011;1272;53.332;9.860;2024-02-21T14:51:54;4.30;;;3.90;;
2522;SDS011;1272;53.332;9.860;2024-02-21T14:54:20;5.63;;;4.50;;
2522;SDS011;1272;53.332;9.860;2024-02-21T14:56:46;4.30;;;3.90;;
2522;SDS011;1272;53.332;9.860;2024-02-21T14:59:12;4.63;;;4.30;;